sensor_id;sensor_type;location;lat;lon;timestamp;temperature;humidity
68746;SHT31;66104;45.456;11.064;2023-06-22T00:00:53;27.24;51.24
68746;SHT31;66104;45.456;11.064;2023-06-22T00:03:29;27.21;51.22
68746;SHT31;66104;45.456;11.064;2023-06-22T00:06:06;27.19;51.33
68746;SHT31;66104;45.456;11.064;2023-06-22T00:08:43;27.15;51.48
68746;SHT31;66104;45.456;11.064;2023-06-22T00:11:20;27.09;51.96
68746;SHT31;66104;45.456;11.064;2023-06-22T00:13:56;27.05;52.54
68746;SHT31;66104;45.456;11.064;2023-06-22T00:16:32;27.05;52.77
68746;SHT31;66104;45.456;11.064;2023-06-22T00:19:09;27.06;52.87
68746;SHT31;66104;45.456;11.064;2023-06-22T00:21:45;27.03;52.82
68746;SHT31;66104;45.456;11.064;2023-06-22T00:24:23;26.97;52.91
68746;SHT31;66104;45.456;11.064;2023-06-22T00:27:01;26.90;53.71
68746;SHT31;66104;45.456;11.064;2023-06-22T00:29:39;26.82;54.78
68746;SHT31;66104;45.456;11.064;2023-06-22T00:32:15;26.78;54.67
68746;SHT31;66104;45.456;11.064;2023-06-22T00:34:51;26.77;55.10
68746;SHT31;66104;45.456;11.064;2023-06-22T00:37:26;26.74;55.50
68746;SHT31;66104;45.456;11.064;2023-06-22T00:40:05;26.69;55.73
68746;SHT31;66104;45.456;11.064;2023-06-22T00:42:45;26.66;55.92
68746;SHT31;66104;45.456;11.064;2023-06-22T00:45:21;26.57;56.35
68746;SHT31;66104;45.456;11.064;2023-06-22T00:47:57;26.51;56.54
68746;SHT31;66104;45.456;11.064;2023-06-22T00:50:34;26.53;56.41
68746;SHT31;66104;45.456;11.064;2023-06-22T00:53:11;26.56;56.08
68746;SHT31;66104;45.456;11.064;2023-06-22T00:55:48;26.63;55.57
68746;SHT31;66104;45.456;11.064;2023-06-22T00:58:24;26.69;54.93
68746;SHT31;66104;45.456;11.064;2023-06-22T01:01:00;26.69;54.70
68746;SHT31;66104;45.456;11.064;2023-06-22T01:03:37;26.67;54.65
68746;SHT31;66104;45.456;11.064;2023-06-22T01:06:15;26.71;54.42
68746;SHT31;66104;45.456;11.064;2023-06-22T01:09:08;26.77;54.08
68746;SHT31;66104;45.456;11.064;2023-06-22T01:11:53;26.81;53.89
68746;SHT31;66104;45.456;11.064;2023-06-22T01:14:38;26.84;53.82
68746;SHT31;66104;45.456;11.064;2023-06-22T01:17:26;26.86;53.77
68746;SHT31;66104;45.456;11.064;2023-06-22T01:20:03;26.87;53.77
68746;SHT31;66104;45.456;11.064;2023-06-22T01:22:49;26.85;53.98
68746;SHT31;66104;45.456;11.064;2023-06-22T01:25:45;26.84;54.26
68746;SHT31;66104;45.456;11.064;2023-06-22T01:31:25;26.88;54.05
68746;SHT31;66104;45.456;11.064;2023-06-22T01:34:04;26.90;53.79
68746;SHT31;66104;45.456;11.064;2023-06-22T01:36:42;26.91;53.73
68746;SHT31;66104;45.456;11.064;2023-06-22T01:39:21;26.92;53.61
68746;SHT31;66104;45.456;11.064;2023-06-22T01:41:58;26.92;53.49
68746;SHT31;66104;45.456;11.064;2023-06-22T01:44:41;26.91;53.48
68746;SHT31;66104;45.456;11.064;2023-06-22T01:47:18;26.89;53.58
68746;SHT31;66104;45.456;11.064;2023-06-22T01:49:56;26.89;53.61
68746;SHT31;66104;45.456;11.064;2023-06-22T01:52:34;26.87;53.68
68746;SHT31;66104;45.456;11.064;2023-06-22T01:55:11;26.85;53.76
68746;SHT31;66104;45.456;11.064;2023-06-22T01:57:50;26.83;53.79
68746;SHT31;66104;45.456;11.064;2023-06-22T02:00:26;26.78;53.93
68746;SHT31;66104;45.456;11.064;2023-06-22T02:03:08;26.77;53.97
68746;SHT31;66104;45.456;11.064;2023-06-22T02:05:50;26.74;53.96
68746;SHT31;66104;45.456;11.064;2023-06-22T02:08:35;26.69;54.15
68746;SHT31;66104;45.456;11.064;2023-06-22T02:11:18;26.62;54.40
68746;SHT31;66104;45.456;11.064;2023-06-22T02:13:59;26.57;54.57
68746;SHT31;66104;45.456;11.064;2023-06-22T02:16:37;26.54;54.59
68746;SHT31;66104;45.456;11.064;2023-06-22T02:19:13;26.50;54.58
68746;SHT31;66104;45.456;11.064;2023-06-22T02:21:53;26.48;54.64
68746;SHT31;66104;45.456;11.064;2023-06-22T02:24:30;26.48;54.65
68746;SHT31;66104;45.456;11.064;2023-06-22T02:27:08;26.47;54.61
68746;SHT31;66104;45.456;11.064;2023-06-22T02:29:46;26.44;54.61
68746;SHT31;66104;45.456;11.064;2023-06-22T02:32:22;26.44;54.56
68746;SHT31;66104;45.456;11.064;2023-06-22T02:34:59;26.43;54.43
68746;SHT31;66104;45.456;11.064;2023-06-22T02:37:35;26.41;54.48
68746;SHT31;66104;45.456;11.064;2023-06-22T02:40:12;26.41;54.49
68746;SHT31;66104;45.456;11.064;2023-06-22T02:42:50;26.38;54.53
68746;SHT31;66104;45.456;11.064;2023-06-22T02:45:28;26.40;54.50
68746;SHT31;66104;45.456;11.064;2023-06-22T02:48:05;26.40;54.62
68746;SHT31;66104;45.456;11.064;2023-06-22T02:50:42;26.40;54.60
68746;SHT31;66104;45.456;11.064;2023-06-22T02:53:20;26.41;54.65
68746;SHT31;66104;45.456;11.064;2023-06-22T02:55:57;26.43;55.00
68746;SHT31;66104;45.456;11.064;2023-06-22T02:58:37;26.44;55.20
68746;SHT31;66104;45.456;11.064;2023-06-22T03:01:13;26.45;55.17
68746;SHT31;66104;45.456;11.064;2023-06-22T03:03:54;26.46;55.17
68746;SHT31;66104;45.456;11.064;2023-06-22T03:06:31;26.42;55.96
68746;SHT31;66104;45.456;11.064;2023-06-22T03:09:09;26.28;57.39
68746;SHT31;66104;45.456;11.064;2023-06-22T03:11:48;26.09;57.77
68746;SHT31;66104;45.456;11.064;2023-06-22T03:14:27;25.98;58.08
68746;SHT31;66104;45.456;11.064;2023-06-22T03:17:05;25.87;58.34
68746;SHT31;66104;45.456;11.064;2023-06-22T03:19:42;25.86;58.24
68746;SHT31;66104;45.456;11.064;2023-06-22T03:22:19;25.91;58.07
68746;SHT31;66104;45.456;11.064;2023-06-22T03:24:56;25.97;57.87
68746;SHT31;66104;45.456;11.064;2023-06-22T03:27:34;26.02;57.25
68746;SHT31;66104;45.456;11.064;2023-06-22T03:30:13;26.06;57.08
68746;SHT31;66104;45.456;11.064;2023-06-22T03:32:49;26.13;56.59
68746;SHT31;66104;45.456;11.064;2023-06-22T03:35:29;26.17;56.53
68746;SHT31;66104;45.456;11.064;2023-06-22T03:38:05;26.19;56.04
68746;SHT31;66104;45.456;11.064;2023-06-22T03:40:42;26.22;55.65
68746;SHT31;66104;45.456;11.064;2023-06-22T03:43:20;26.23;55.68
68746;SHT31;66104;45.456;11.064;2023-06-22T03:45:57;26.25;55.55
68746;SHT31;66104;45.456;11.064;2023-06-22T03:48:34;26.27;55.58
68746;SHT31;66104;45.456;11.064;2023-06-22T03:51:11;26.26;55.47
68746;SHT31;66104;45.456;11.064;2023-06-22T03:53:48;26.27;55.42
68746;SHT31;66104;45.456;11.064;2023-06-22T03:56:27;26.29;55.32
68746;SHT31;66104;45.456;11.064;2023-06-22T03:59:03;26.25;55.33
68746;SHT31;66104;45.456;11.064;2023-06-22T04:01:40;26.27;55.29
68746;SHT31;66104;45.456;11.064;2023-06-22T04:04:16;26.30;55.20
68746;SHT31;66104;45.456;11.064;2023-06-22T04:06:53;26.32;55.20
68746;SHT31;66104;45.456;11.064;2023-06-22T04:09:33;26.33;55.16
68746;SHT31;66104;45.456;11.064;2023-06-22T04:12:10;26.33;55.21
68746;SHT31;66104;45.456;11.064;2023-06-22T04:14:47;26.35;55.07
68746;SHT31;66104;45.456;11.064;2023-06-22T04:17:24;26.39;54.92
68746;SHT31;66104;45.456;11.064;2023-06-22T04:20:01;26.41;54.86
68746;SHT31;66104;45.456;11.064;2023-06-22T04:22:42;26.46;54.81
68746;SHT31;66104;45.456;11.064;2023-06-22T04:25:19;26.52;54.71
68746;SHT31;66104;45.456;11.064;2023-06-22T04:27:55;26.58;54.74
68746;SHT31;66104;45.456;11.064;2023-06-22T04:30:32;26.63;54.61
68746;SHT31;66104;45.456;11.064;2023-06-22T04:33:15;26.63;54.50
68746;SHT31;66104;45.456;11.064;2023-06-22T04:35:52;26.64;54.38
68746;SHT31;66104;45.456;11.064;2023-06-22T04:38:29;26.63;54.43
68746;SHT31;66104;45.456;11.064;2023-06-22T04:41:06;26.66;55.83
68746;SHT31;66104;45.456;11.064;2023-06-22T04:43:53;26.65;56.33
68746;SHT31;66104;45.456;11.064;2023-06-22T04:46:30;26.66;55.56
68746;SHT31;66104;45.456;11.064;2023-06-22T04:49:08;26.71;54.92
68746;SHT31;66104;45.456;11.064;2023-06-22T04:51:44;26.78;54.50
68746;SHT31;66104;45.456;11.064;2023-06-22T04:54:21;26.86;54.53
68746;SHT31;66104;45.456;11.064;2023-06-22T04:56:57;26.93;54.27
68746;SHT31;66104;45.456;11.064;2023-06-22T04:59:40;27.01;53.94
68746;SHT31;66104;45.456;11.064;2023-06-22T05:02:17;27.07;53.83
68746;SHT31;66104;45.456;11.064;2023-06-22T05:05:00;27.05;53.62
68746;SHT31;66104;45.456;11.064;2023-06-22T05:07:43;27.04;53.67
68746;SHT31;66104;45.456;11.064;2023-06-22T05:10:22;27.06;54.66
68746;SHT31;66104;45.456;11.064;2023-06-22T05:12:59;27.05;55.78
68746;SHT31;66104;45.456;11.064;2023-06-22T05:15:36;27.06;55.87
68746;SHT31;66104;45.456;11.064;2023-06-22T05:18:12;27.07;55.94
68746;SHT31;66104;45.456;11.064;2023-06-22T05:20:53;27.03;57.51
68746;SHT31;66104;45.456;11.064;2023-06-22T05:23:30;26.99;58.42
68746;SHT31;66104;45.456;11.064;2023-06-22T05:26:06;26.99;58.46
68746;SHT31;66104;45.456;11.064;2023-06-22T05:28:43;27.02;58.41
68746;SHT31;66104;45.456;11.064;2023-06-22T05:31:20;26.99;58.22
68746;SHT31;66104;45.456;11.064;2023-06-22T05:33:58;26.92;58.74
68746;SHT31;66104;45.456;11.064;2023-06-22T05:36:38;26.88;58.95
68746;SHT31;66104;45.456;11.064;2023-06-22T05:39:14;26.91;59.40
68746;SHT31;66104;45.456;11.064;2023-06-22T05:41:51;26.94;59.43
68746;SHT31;66104;45.456;11.064;2023-06-22T05:44:27;26.99;59.08
68746;SHT31;66104;45.456;11.064;2023-06-22T05:47:06;27.09;58.74
68746;SHT31;66104;45.456;11.064;2023-06-22T05:49:43;27.18;58.66
